This is the latest recevied weather packets stored in our database for station/object N8ESC. If no packets are shown the sender has not sent any weather packets the latest 10 day(s).
| Time | Temp. | Humidity | Pressure | Rain* | Wind** | Luminosity | Snow |
|---|---|---|---|---|---|---|---|
| 1777667748 | 5° C | 60% | 1015.8 hPa | 0 mm | - | 234 W/m² | - |
| 1777667446 | 5° C | 60% | 1015.5 hPa | 0 mm | - | 248 W/m² | - |
| 1777667143 | 5.56° C | 63% | 1015.6 hPa | 0 mm | - | 329 W/m² | - |
| 1777666839 | 5° C | 66% | 1015.5 hPa | 0 mm | - | 448 W/m² | - |
| 1777666537 | 4.44° C | 71% | 1015.8 hPa | 0 mm | - | 447 W/m² | - |
| 1777666233 | 4.44° C | 73% | 1015.7 hPa | 0 mm | - | 411 W/m² | - |
| 1777665930 | 3.89° C | 77% | 1015.9 hPa | 0 mm | - | 312 W/m² | - |
| 1777665627 | 3.89° C | 77% | 1016 hPa | 0 mm | - | 241 W/m² | - |
| 1777665325 | 3.33° C | 75% | 1016.3 hPa | 0 mm | - | 172 W/m² | - |
| 1777665020 | 3.33° C | 78% | 1016.2 hPa | 0 mm | - | 155 W/m² | - |
| 1777664716 | 2.78° C | 80% | 1016 hPa | 0 mm | - | 135 W/m² | - |
| 1777664412 | 3.89° C | 74% | 1015.9 hPa | 0 mm | - | 123 W/m² | - |
| 1777664110 | 4.44° C | 68% | 1016.1 hPa | 0 mm | - | 122 W/m² | - |
| 1777663808 | 4.44° C | 68% | 1015.9 hPa | 0 mm | - | 219 W/m² | - |
| 1777663505 | 4.44° C | 67% | 1016.2 hPa | 0 mm | - | 260 W/m² | - |
| 1777663202 | 3.89° C | 70% | 1015.7 hPa | 0 mm | - | 398 W/m² | - |
| 1777662899 | 5° C | 64% | 1016.2 hPa | 0 mm | - | 428 W/m² | - |
| 1777662596 | 4.44° C | 63% | 1015.9 hPa | 0 mm | - | 660 W/m² | - |
| 1777662291 | 5.56° C | 60% | 1015.7 hPa | 0 mm | - | 355 W/m² | - |
| 1777661987 | 5.56° C | 60% | 1015.7 hPa | 0 mm | - | 451 W/m² | - |
| 1777661683 | 6.11° C | 59% | 1015.5 hPa | 0 mm | - | 422 W/m² | - |
| 1777661380 | 6.67° C | 48% | 1015.4 hPa | 0 mm | - | 708 W/m² | - |
| 1777661076 | 6.11° C | 50% | 1015.4 hPa | 0 mm | - | 831 W/m² | - |
| 1777660771 | 5.56° C | 52% | 1015.2 hPa | 0 mm | - | 413 W/m² | - |
| 1777660468 | 6.11° C | 57% | 1015.4 hPa | 0 mm | - | 221 W/m² | - |
* Rain latest hour (hover to see other rain measurements)
** Current wind speed in m/s (hover to see current wind gust speed)